createdAt,value
2023-06-17T00:01:06.644Z,101717.28
2023-06-17T00:03:33.191Z,101710.38
2023-06-17T00:05:59.642Z,101685.84
2023-06-17T00:08:26.185Z,101711.19
2023-06-17T00:10:52.678Z,101708.00
2023-06-17T00:13:20.921Z,101694.16
2023-06-17T00:15:49.260Z,101690.06
2023-06-17T00:18:20.478Z,101708.47
2023-06-17T00:20:48.168Z,101714.53
2023-06-17T00:23:14.749Z,101710.00
2023-06-17T00:25:41.253Z,101706.88
2023-06-17T00:28:07.711Z,101698.84
2023-06-17T00:30:34.193Z,101701.50
2023-06-17T00:33:00.815Z,101693.94
2023-06-17T00:35:27.400Z,101695.59
2023-06-17T00:37:53.920Z,101682.75
2023-06-17T00:40:20.676Z,101694.03
2023-06-17T00:42:47.422Z,101687.38
2023-06-17T00:45:13.920Z,101688.91
2023-06-17T00:47:40.700Z,101692.53
2023-06-17T00:50:09.617Z,101681.97
2023-06-17T00:52:42.616Z,101682.81
2023-06-17T00:55:10.589Z,101679.78
2023-06-17T00:57:38.512Z,101673.09
2023-06-17T01:00:11.411Z,101666.19
2023-06-17T01:02:41.972Z,101677.75
2023-06-17T01:05:12.928Z,101663.13
2023-06-17T01:07:47.455Z,101674.78
2023-06-17T01:10:18.768Z,101662.38
2023-06-17T01:12:47.386Z,101675.38
2023-06-17T01:15:17.218Z,101667.06
2023-06-17T01:17:45.588Z,101663.38
2023-06-17T01:20:14.120Z,101664.63
2023-06-17T01:22:41.348Z,101675.88
2023-06-17T01:25:09.845Z,101677.31
2023-06-17T01:27:36.967Z,101683.16
2023-06-17T01:30:04.123Z,101674.56
2023-06-17T01:32:30.754Z,101661.56
2023-06-17T01:35:02.629Z,101675.75
2023-06-17T01:37:41.370Z,101675.38
2023-06-17T01:40:11.471Z,101647.66
2023-06-17T01:42:41.808Z,101675.19
2023-06-17T01:45:08.870Z,101663.25
2023-06-17T01:47:35.655Z,101680.25
2023-06-17T01:50:03.989Z,101676.44
2023-06-17T01:52:30.467Z,101672.59
2023-06-17T01:54:57.767Z,101666.94
2023-06-17T01:57:24.400Z,101664.19
2023-06-17T01:59:50.872Z,101669.44
2023-06-17T02:02:17.458Z,101662.75
2023-06-17T02:04:44.018Z,101656.00
2023-06-17T02:07:11.432Z,101668.31
2023-06-17T02:09:38.767Z,101666.63
2023-06-17T02:12:06.507Z,101658.44
2023-06-17T02:14:34.274Z,101675.25
2023-06-17T02:17:01.265Z,101669.00
2023-06-17T02:19:30.039Z,101647.66
2023-06-17T02:21:56.836Z,101664.44
2023-06-17T02:24:23.710Z,101661.81
2023-06-17T02:26:51.451Z,101659.94
2023-06-17T02:29:18.540Z,101652.28
2023-06-17T02:31:45.085Z,101655.34
2023-06-17T02:34:11.951Z,101647.22
2023-06-17T02:36:39.654Z,101643.97
2023-06-17T02:39:07.312Z,101631.09
2023-06-17T02:41:34.212Z,101646.69
2023-06-17T02:44:01.063Z,101636.91
2023-06-17T02:46:28.266Z,101642.28
2023-06-17T02:48:56.041Z,101632.78
2023-06-17T02:51:23.324Z,101637.59
2023-06-17T02:53:52.102Z,101620.34
2023-06-17T02:56:18.706Z,101636.59
2023-06-17T02:58:46.741Z,101645.19
2023-06-17T03:01:13.883Z,101636.00
2023-06-17T03:03:42.928Z,101643.50
2023-06-17T03:06:10.368Z,101637.06
2023-06-17T03:08:38.932Z,101636.59
2023-06-17T03:11:05.720Z,101636.97
2023-06-17T03:13:32.383Z,101641.41
2023-06-17T03:16:00.491Z,101635.53
2023-06-17T03:18:27.487Z,101641.19
2023-06-17T03:20:54.645Z,101650.69
2023-06-17T03:23:23.723Z,101637.94
2023-06-17T03:25:51.253Z,101642.19
2023-06-17T03:28:18.704Z,101627.72
2023-06-17T03:30:45.766Z,101632.91
2023-06-17T03:33:13.567Z,101624.59
2023-06-17T03:35:40.443Z,101637.72
2023-06-17T03:38:07.088Z,101631.34
2023-06-17T03:40:33.558Z,101624.59
2023-06-17T03:43:00.209Z,101629.47
2023-06-17T03:45:26.772Z,101631.09
2023-06-17T03:47:53.259Z,101643.13
2023-06-17T03:50:20.079Z,101629.59
2023-06-17T03:52:46.794Z,101627.16
2023-06-17T03:55:13.795Z,101640.94
2023-06-17T03:57:41.351Z,101632.78
2023-06-17T04:00:09.151Z,101637.25
2023-06-17T04:02:35.906Z,101638.91
2023-06-17T04:05:03.370Z,101634.59
2023-06-17T04:07:29.882Z,101629.97
2023-06-17T04:10:06.277Z,101631.41
2023-06-17T04:12:36.440Z,101622.28
2023-06-17T04:15:02.939Z,101625.81
2023-06-17T04:17:29.510Z,101634.91
2023-06-17T04:19:57.519Z,101630.28
2023-06-17T04:22:24.058Z,101634.81
2023-06-17T04:24:57.095Z,101640.09
2023-06-17T04:27:23.866Z,101630.72
2023-06-17T04:29:50.428Z,101643.03
2023-06-17T04:32:17.012Z,101636.22
2023-06-17T04:34:49.491Z,101632.97
2023-06-17T04:37:16.167Z,101643.97
2023-06-17T04:39:43.208Z,101640.16
2023-06-17T04:42:17.383Z,101642.41
2023-06-17T04:44:44.257Z,101646.44
2023-06-17T04:47:13.109Z,101635.19
2023-06-17T04:49:42.546Z,101639.88
2023-06-17T04:52:12.380Z,101635.44
2023-06-17T04:54:39.638Z,101617.91
2023-06-17T04:57:09.741Z,101620.22
2023-06-17T04:59:36.338Z,101641.47
2023-06-17T05:02:03.066Z,101633.22
2023-06-17T05:04:29.758Z,101631.06
2023-06-17T05:06:56.282Z,101631.50
2023-06-17T05:09:23.759Z,101627.91
2023-06-17T05:11:50.752Z,101614.06
2023-06-17T05:14:17.276Z,101639.44
2023-06-17T05:16:43.773Z,101641.28
2023-06-17T05:19:10.266Z,101644.56
2023-06-17T05:21:36.762Z,101639.75
2023-06-17T05:24:04.006Z,101646.47
2023-06-17T05:26:30.939Z,101644.25
2023-06-17T05:28:58.173Z,101632.53
2023-06-17T05:31:24.798Z,101624.03
2023-06-17T05:33:51.397Z,101641.34
2023-06-17T05:36:17.857Z,101642.94
2023-06-17T05:38:44.409Z,101636.00
2023-06-17T05:41:10.950Z,101641.50
2023-06-17T05:43:37.417Z,101632.63
2023-06-17T05:46:03.927Z,101647.03
2023-06-17T05:48:30.509Z,101640.38
2023-06-17T05:50:57.004Z,101650.47
2023-06-17T05:53:23.528Z,101641.19
2023-06-17T05:55:50.036Z,101632.31
2023-06-17T05:58:16.515Z,101642.22
2023-06-17T06:00:42.998Z,101625.84
2023-06-17T06:03:09.502Z,101638.22
2023-06-17T06:05:36.156Z,101595.88
2023-06-17T06:08:02.671Z,101630.50
2023-06-17T06:10:29.503Z,101634.56
2023-06-17T06:12:56.446Z,101631.94
2023-06-17T06:15:23.416Z,101631.34
2023-06-17T06:17:50.110Z,101639.66
2023-06-17T06:20:16.773Z,101627.88
2023-06-17T06:22:43.799Z,101640.03
2023-06-17T06:25:10.701Z,101627.84
2023-06-17T06:27:37.321Z,101631.28
2023-06-17T06:30:04.133Z,101632.06
2023-06-17T06:32:30.680Z,101629.59
2023-06-17T06:34:57.183Z,101635.06
2023-06-17T06:37:23.750Z,101632.78
2023-06-17T06:39:50.356Z,101642.31
2023-06-17T06:42:16.803Z,101643.09
2023-06-17T06:44:43.294Z,101645.88
2023-06-17T06:47:09.726Z,101642.78
2023-06-17T06:49:36.250Z,101635.66
2023-06-17T06:52:02.806Z,101629.16
2023-06-17T06:54:29.296Z,101640.44
2023-06-17T06:56:56.826Z,101629.25
2023-06-17T06:59:23.483Z,101611.84
2023-06-17T07:01:49.988Z,101638.03
2023-06-17T07:04:16.581Z,101636.31
2023-06-17T07:06:43.209Z,101636.03
2023-06-17T07:09:09.693Z,101634.56
2023-06-17T07:11:36.157Z,101641.00
2023-06-17T07:14:02.641Z,101631.19
2023-06-17T07:16:29.470Z,101634.91
2023-06-17T07:18:56.068Z,101610.31
2023-06-17T07:21:22.725Z,101637.09
2023-06-17T07:23:49.284Z,101632.44
2023-06-17T07:26:29.491Z,101644.41
2023-06-17T07:28:56.385Z,101625.69
2023-06-17T07:31:23.997Z,101638.69
2023-06-17T07:34:00.578Z,101626.44
2023-06-17T07:36:27.120Z,101632.81
2023-06-17T07:38:53.730Z,101611.38
2023-06-17T07:44:02.082Z,101619.94
2023-06-17T07:46:28.717Z,101591.72
2023-06-17T07:48:55.284Z,101580.81
2023-06-17T07:51:21.844Z,101609.22
2023-06-17T07:53:48.346Z,101617.50
2023-06-17T07:56:14.852Z,101625.94
2023-06-17T07:58:42.263Z,101620.84
2023-06-17T08:01:08.762Z,101618.94
2023-06-17T08:03:35.339Z,101617.69
2023-06-17T08:06:02.624Z,101611.59
2023-06-17T08:08:29.105Z,101622.28
2023-06-17T08:11:03.182Z,101602.72
2023-06-17T08:13:29.635Z,101621.66
2023-06-17T08:15:56.289Z,101628.06
2023-06-17T08:18:22.792Z,101621.97
2023-06-17T08:20:49.303Z,101610.69
2023-06-17T08:23:15.880Z,101626.03
2023-06-17T08:25:42.439Z,101619.53
2023-06-17T08:28:09.039Z,101624.63
2023-06-17T08:30:52.478Z,101590.56
2023-06-17T08:33:19.127Z,101620.53
2023-06-17T08:35:45.641Z,101578.50
2023-06-17T08:38:12.187Z,101623.16
2023-06-17T08:40:39.257Z,101619.56
2023-06-17T08:43:06.410Z,101619.84
2023-06-17T08:45:33.262Z,101614.72
2023-06-17T08:47:59.814Z,101616.22
2023-06-17T08:50:28.023Z,101609.22
2023-06-17T08:52:55.508Z,101614.47
2023-06-17T08:55:22.348Z,101611.81
2023-06-17T08:57:51.527Z,101622.53
2023-06-17T09:00:18.504Z,101620.06
2023-06-17T09:02:48.785Z,101615.38
2023-06-17T09:05:15.866Z,101618.84
2023-06-17T09:07:42.533Z,101601.84
2023-06-17T09:10:11.820Z,101615.34
2023-06-17T09:12:38.821Z,101620.59
2023-06-17T09:15:09.673Z,101629.13
2023-06-17T09:17:38.118Z,101634.31
2023-06-17T09:20:12.333Z,101632.13
2023-06-17T09:22:41.464Z,101631.91
2023-06-17T09:25:15.273Z,101627.03
2023-06-17T09:28:02.599Z,101627.34
2023-06-17T09:30:36.896Z,101627.00
2023-06-17T09:33:04.026Z,101627.97
2023-06-17T09:35:36.872Z,101622.91
2023-06-17T09:38:04.886Z,101605.56
2023-06-17T09:40:34.138Z,101613.50
2023-06-17T09:43:16.355Z,101624.53
2023-06-17T09:45:51.118Z,101622.94
2023-06-17T09:48:18.593Z,101619.50
2023-06-17T09:50:45.165Z,101624.59
2023-06-17T09:53:12.484Z,101615.34
2023-06-17T09:55:39.413Z,101610.28
2023-06-17T09:58:06.774Z,101612.69
2023-06-17T10:00:33.854Z,101616.34
2023-06-17T10:03:02.155Z,101614.53
2023-06-17T10:05:28.800Z,101602.66
2023-06-17T10:07:56.683Z,101612.44
2023-06-17T10:10:24.553Z,101585.22
2023-06-17T10:12:52.110Z,101606.00
2023-06-17T10:15:20.372Z,101607.13
2023-06-17T10:17:48.024Z,101608.34
2023-06-17T10:20:15.781Z,101604.06
2023-06-17T10:22:43.794Z,101589.09
2023-06-17T10:25:11.453Z,101604.53
2023-06-17T10:27:38.456Z,101593.88
2023-06-17T10:30:24.853Z,101599.75
2023-06-17T10:32:59.289Z,101601.13
2023-06-17T10:35:40.460Z,101611.25
2023-06-17T10:38:08.167Z,101597.31
2023-06-17T10:40:37.349Z,101588.63
2023-06-17T10:43:03.784Z,101590.81
2023-06-17T10:45:35.747Z,101590.16
2023-06-17T10:48:17.927Z,101590.03
2023-06-17T10:50:48.711Z,101585.56
2023-06-17T10:53:17.956Z,101577.53
2023-06-17T10:55:44.998Z,101578.91
2023-06-17T10:58:11.496Z,101572.00
2023-06-17T11:00:38.064Z,101563.81
2023-06-17T11:03:06.005Z,101556.47
2023-06-17T11:05:37.062Z,101564.78
2023-06-17T11:08:04.551Z,101561.03
2023-06-17T11:10:31.337Z,101563.81
2023-06-17T11:12:58.275Z,101563.31
2023-06-17T11:15:25.191Z,101557.47
2023-06-17T11:18:02.112Z,101562.22
2023-06-17T11:20:34.135Z,101564.81
2023-06-17T11:23:00.898Z,101555.06
2023-06-17T11:25:43.635Z,101547.81
2023-06-17T11:28:12.496Z,101540.22
2023-06-17T11:30:41.507Z,101549.31
2023-06-17T11:33:09.439Z,101548.69
2023-06-17T11:35:38.145Z,101546.38
2023-06-17T11:38:05.795Z,101540.56
2023-06-17T11:40:32.302Z,101538.13
2023-06-17T11:42:59.103Z,101542.53
2023-06-17T11:45:26.113Z,101532.22
2023-06-17T11:47:52.683Z,101525.75
2023-06-17T11:50:19.925Z,101528.03
2023-06-17T11:52:57.782Z,101519.81
2023-06-17T11:55:36.953Z,101524.09
2023-06-17T11:58:07.003Z,101529.56
2023-06-17T12:00:37.723Z,101528.56
2023-06-17T12:03:04.651Z,101505.78
2023-06-17T12:05:32.634Z,101526.31
2023-06-17T12:08:02.700Z,101517.88
2023-06-17T12:10:29.277Z,101521.63
2023-06-17T12:12:57.239Z,101527.09
2023-06-17T12:18:10.557Z,101523.00
2023-06-17T12:20:37.820Z,101515.72
2023-06-17T12:23:05.019Z,101513.88
2023-06-17T12:25:35.458Z,101521.03
2023-06-17T12:28:04.783Z,101514.69
2023-06-17T12:30:31.273Z,101514.66
2023-06-17T12:32:58.354Z,101507.56
2023-06-17T12:35:25.769Z,101512.28
2023-06-17T12:37:55.643Z,101502.75
2023-06-17T12:40:22.139Z,101498.56
2023-06-17T12:42:48.581Z,101509.06
2023-06-17T12:45:15.040Z,101500.94
2023-06-17T12:47:42.114Z,101492.91
2023-06-17T12:50:09.206Z,101489.22
2023-06-17T12:52:35.870Z,101489.84
2023-06-17T12:55:02.758Z,101479.25
2023-06-17T12:57:29.981Z,101472.25
2023-06-17T12:59:56.634Z,101484.94
2023-06-17T13:02:25.790Z,101474.00
2023-06-17T13:04:52.408Z,101472.38
2023-06-17T13:07:20.643Z,101477.28
2023-06-17T13:09:47.248Z,101480.47
2023-06-17T13:12:14.840Z,101470.09
2023-06-17T13:14:41.325Z,101470.38
2023-06-17T13:17:08.083Z,101474.88
2023-06-17T13:19:34.642Z,101472.53
2023-06-17T13:22:01.117Z,101453.88
2023-06-17T13:24:28.333Z,101466.75
2023-06-17T13:26:55.641Z,101472.00
2023-06-17T13:29:22.802Z,101465.50
2023-06-17T13:31:49.336Z,101465.31
2023-06-17T13:34:15.926Z,101465.22
2023-06-17T13:36:46.134Z,101478.06
2023-06-17T13:39:14.475Z,101462.13
2023-06-17T13:41:41.190Z,101466.25
2023-06-17T13:44:09.094Z,101452.44
2023-06-17T13:46:36.274Z,101457.31
2023-06-17T13:49:04.164Z,101446.19
2023-06-17T13:51:30.738Z,101460.13
2023-06-17T13:53:57.632Z,101464.88
2023-06-17T13:56:25.444Z,101461.47
2023-06-17T13:58:51.927Z,101461.69
2023-06-17T14:01:18.509Z,101464.75
2023-06-17T14:03:45.086Z,101460.63
2023-06-17T14:06:11.772Z,101470.44
2023-06-17T14:08:38.341Z,101458.25
2023-06-17T14:11:04.803Z,101458.56
2023-06-17T14:13:31.500Z,101456.56
2023-06-17T14:15:58.108Z,101445.56
2023-06-17T14:18:24.627Z,101454.81
2023-06-17T14:20:51.107Z,101451.44
2023-06-17T14:23:17.572Z,101456.19
2023-06-17T14:25:44.062Z,101443.78
2023-06-17T14:28:10.550Z,101454.16
2023-06-17T14:30:37.356Z,101448.69
2023-06-17T14:33:04.031Z,101443.47
2023-06-17T14:35:30.828Z,101448.16
2023-06-17T14:37:57.319Z,101443.53
2023-06-17T14:40:24.040Z,101448.63
2023-06-17T14:42:50.837Z,101451.94
2023-06-17T14:45:17.571Z,101445.75
2023-06-17T14:47:45.111Z,101441.47
2023-06-17T14:50:12.726Z,101448.78
2023-06-17T14:52:39.489Z,101442.25
2023-06-17T14:55:06.631Z,101439.91
2023-06-17T14:57:33.893Z,101435.78
2023-06-17T15:00:00.901Z,101441.31
2023-06-17T15:02:46.155Z,101432.44
2023-06-17T15:05:13.236Z,101426.53
2023-06-17T15:07:39.672Z,101421.19
2023-06-17T15:10:06.998Z,101441.88
2023-06-17T15:12:33.602Z,101442.72
2023-06-17T15:15:00.133Z,101445.09
2023-06-17T15:17:27.140Z,101440.38
2023-06-17T15:19:53.651Z,101440.69
2023-06-17T15:22:20.263Z,101443.03
2023-06-17T15:24:46.721Z,101435.25
2023-06-17T15:27:13.241Z,101434.72
2023-06-17T15:29:40.372Z,101428.88
2023-06-17T15:32:07.279Z,101426.84
2023-06-17T15:34:33.782Z,101422.13
2023-06-17T15:37:00.332Z,101425.16
2023-06-17T15:39:29.042Z,101427.56
2023-06-17T15:41:55.750Z,101422.25
2023-06-17T15:44:22.918Z,101417.34
2023-06-17T15:46:50.182Z,101420.34
2023-06-17T15:49:16.831Z,101414.31
2023-06-17T15:51:43.332Z,101419.13
2023-06-17T15:54:09.919Z,101423.03
2023-06-17T15:56:37.656Z,101422.63
2023-06-17T15:59:04.856Z,101414.97
2023-06-17T16:01:31.451Z,101416.56
2023-06-17T16:03:58.457Z,101411.34
2023-06-17T16:06:25.012Z,101415.78
2023-06-17T16:08:52.361Z,101404.84
2023-06-17T16:11:19.616Z,101406.84
2023-06-17T16:13:46.260Z,101414.69
2023-06-17T16:16:12.876Z,101396.22
2023-06-17T16:18:39.707Z,101399.69
2023-06-17T16:21:06.207Z,101402.88
2023-06-17T16:23:32.752Z,101400.16
2023-06-17T16:26:00.006Z,101404.16
2023-06-17T16:28:26.463Z,101399.09
2023-06-17T16:30:52.950Z,101399.16
2023-06-17T16:33:19.484Z,101393.38
2023-06-17T16:35:45.955Z,101394.69
2023-06-17T16:38:12.440Z,101391.91
2023-06-17T16:40:38.946Z,101391.22
2023-06-17T16:43:05.431Z,101386.38
2023-06-17T16:45:32.034Z,101384.94
2023-06-17T16:47:58.641Z,101381.53
2023-06-17T16:50:25.298Z,101389.19
2023-06-17T16:52:51.943Z,101384.81
2023-06-17T16:55:18.553Z,101381.25
2023-06-17T16:57:45.062Z,101382.75
2023-06-17T17:00:12.672Z,101374.50
2023-06-17T17:02:39.484Z,101379.44
2023-06-17T17:05:06.586Z,101385.00
2023-06-17T17:07:33.092Z,101384.00
2023-06-17T17:09:59.590Z,101381.09
2023-06-17T17:12:26.054Z,101378.97
2023-06-17T17:14:52.708Z,101371.38
2023-06-17T17:17:19.181Z,101385.75
2023-06-17T17:19:45.668Z,101388.84
2023-06-17T17:22:12.165Z,101388.22
2023-06-17T17:24:39.024Z,101394.47
2023-06-17T17:27:07.816Z,101397.69
2023-06-17T17:29:35.271Z,101398.50
2023-06-17T17:32:01.849Z,101404.00
2023-06-17T17:34:28.323Z,101394.88
2023-06-17T17:36:54.794Z,101399.19
2023-06-17T17:39:21.211Z,101397.63
2023-06-17T17:41:47.726Z,101378.34
2023-06-17T17:44:14.216Z,101399.44
2023-06-17T17:46:40.875Z,101406.69
2023-06-17T17:49:07.441Z,101405.19
2023-06-17T17:51:33.901Z,101396.34
2023-06-17T17:54:00.569Z,101405.84
2023-06-17T17:56:27.402Z,101402.44
2023-06-17T17:58:53.890Z,101405.22
2023-06-17T18:01:20.547Z,101402.81
2023-06-17T18:03:47.534Z,101404.13
2023-06-17T18:06:14.102Z,101401.78
2023-06-17T18:08:40.597Z,101389.56
2023-06-17T18:11:07.090Z,101397.28
2023-06-17T18:13:33.657Z,101399.69
2023-06-17T18:16:00.350Z,101406.34
2023-06-17T18:18:26.951Z,101400.25
2023-06-17T18:20:53.441Z,101407.22
2023-06-17T18:23:19.942Z,101393.88
2023-06-17T18:25:46.437Z,101395.47
2023-06-17T18:28:12.971Z,101396.81
2023-06-17T18:30:40.468Z,101401.88
2023-06-17T18:33:07.048Z,101398.69
2023-06-17T18:35:34.248Z,101403.22
2023-06-17T18:38:00.745Z,101403.75
2023-06-17T18:40:27.203Z,101401.81
2023-06-17T18:42:53.733Z,101403.66
2023-06-17T18:45:20.238Z,101402.03
2023-06-17T18:47:47.478Z,101406.03
2023-06-17T18:50:14.060Z,101405.22
2023-06-17T18:52:40.576Z,101396.66
2023-06-17T18:55:07.441Z,101401.91
2023-06-17T18:57:33.923Z,101402.22
2023-06-17T19:00:00.548Z,101392.81
2023-06-17T19:02:28.104Z,101395.69
2023-06-17T19:04:54.780Z,101399.47
2023-06-17T19:07:21.259Z,101405.53
2023-06-17T19:09:48.748Z,101395.69
2023-06-17T19:12:15.347Z,101401.47
2023-06-17T19:14:41.872Z,101396.13
2023-06-17T19:17:08.415Z,101412.88
2023-06-17T19:19:34.932Z,101412.81
2023-06-17T19:22:01.456Z,101410.81
2023-06-17T19:24:27.999Z,101398.06
2023-06-17T19:26:54.526Z,101416.34
2023-06-17T19:29:21.065Z,101410.75
2023-06-17T19:31:47.559Z,101415.47
2023-06-17T19:34:14.062Z,101399.06
2023-06-17T19:36:40.752Z,101424.66
2023-06-17T19:39:07.260Z,101419.53
2023-06-17T19:41:33.801Z,101409.88
2023-06-17T19:44:00.321Z,101412.84
2023-06-17T19:46:26.922Z,101416.41
2023-06-17T19:48:53.458Z,101401.59
2023-06-17T19:51:19.904Z,101406.41
2023-06-17T19:53:46.439Z,101401.50
2023-06-17T19:56:13.194Z,101405.31
2023-06-17T19:58:39.721Z,101408.69
2023-06-17T20:01:06.537Z,101413.38
2023-06-17T20:03:33.162Z,101413.81
2023-06-17T20:06:00.944Z,101386.81
2023-06-17T20:08:27.533Z,101411.22
2023-06-17T20:10:54.030Z,101414.69
2023-06-17T20:13:20.552Z,101416.84
2023-06-17T20:15:47.669Z,101415.19
2023-06-17T20:18:14.353Z,101400.75
2023-06-17T20:20:41.070Z,101418.63
2023-06-17T20:23:07.692Z,101382.09
2023-06-17T20:25:34.138Z,101415.91
2023-06-17T20:28:00.679Z,101415.13
2023-06-17T20:30:27.140Z,101415.03
2023-06-17T20:32:53.676Z,101410.16
2023-06-17T20:35:20.328Z,101390.41
2023-06-17T20:37:47.246Z,101397.69
2023-06-17T20:40:13.741Z,101403.69
2023-06-17T20:42:40.364Z,101392.59
2023-06-17T20:45:08.347Z,101402.50
2023-06-17T20:47:34.998Z,101413.66
2023-06-17T20:50:01.505Z,101409.06
2023-06-17T20:52:28.080Z,101390.06
2023-06-17T20:54:54.595Z,101391.16
2023-06-17T20:57:21.130Z,101407.41
2023-06-17T20:59:47.881Z,101398.25
2023-06-17T21:02:16.337Z,101387.44
2023-06-17T21:04:43.019Z,101399.13
2023-06-17T21:07:09.470Z,101400.97
2023-06-17T21:09:36.667Z,101395.34
2023-06-17T21:12:03.623Z,101394.53
2023-06-17T21:14:32.765Z,101391.22
2023-06-17T21:16:59.440Z,101380.94
2023-06-17T21:19:25.947Z,101395.72
2023-06-17T21:21:52.468Z,101396.78
2023-06-17T21:24:20.482Z,101384.16
2023-06-17T21:26:47.080Z,101383.81
2023-06-17T21:29:13.536Z,101397.63
2023-06-17T21:31:39.995Z,101400.63
2023-06-17T21:34:06.623Z,101383.41
2023-06-17T21:36:33.121Z,101395.22
2023-06-17T21:38:59.573Z,101370.63
2023-06-17T21:41:27.224Z,101381.09
2023-06-17T21:43:53.779Z,101387.19
2023-06-17T21:46:25.018Z,101390.09
2023-06-17T21:48:51.938Z,101398.28
2023-06-17T21:51:18.577Z,101391.63
2023-06-17T21:53:45.113Z,101390.91
2023-06-17T21:56:12.894Z,101392.16
2023-06-17T21:58:41.557Z,101378.25
2023-06-17T22:01:08.152Z,101390.47
2023-06-17T22:03:34.791Z,101388.63
2023-06-17T22:06:01.923Z,101396.66
2023-06-17T22:08:41.391Z,101389.34
2023-06-17T22:11:10.286Z,101399.72
2023-06-17T22:13:36.776Z,101403.50
2023-06-17T22:16:03.498Z,101394.97
2023-06-17T22:18:31.460Z,101392.22
2023-06-17T22:20:58.024Z,101390.28
2023-06-17T22:23:24.501Z,101376.66
2023-06-17T22:25:51.001Z,101396.16
2023-06-17T22:28:18.394Z,101361.56
2023-06-17T22:30:44.886Z,101406.84
2023-06-17T22:33:11.424Z,101412.38
2023-06-17T22:35:37.963Z,101396.56
2023-06-17T22:38:04.719Z,101407.00
2023-06-17T22:40:31.192Z,101404.72
2023-06-17T22:42:57.669Z,101380.59
2023-06-17T22:45:24.163Z,101397.19
2023-06-17T22:47:50.691Z,101391.78
2023-06-17T22:50:17.184Z,101390.88
2023-06-17T22:52:43.688Z,101353.88
2023-06-17T22:55:10.246Z,101382.59
2023-06-17T22:57:39.166Z,101376.28
2023-06-17T23:00:06.892Z,101366.94
2023-06-17T23:02:33.761Z,101368.69
2023-06-17T23:05:00.702Z,101376.47
2023-06-17T23:07:27.238Z,101369.13
2023-06-17T23:09:53.727Z,101370.38
2023-06-17T23:12:20.169Z,101374.53
2023-06-17T23:14:46.825Z,101383.00
2023-06-17T23:17:13.328Z,101377.72
2023-06-17T23:19:39.831Z,101371.28
2023-06-17T23:22:07.436Z,101370.84
2023-06-17T23:24:34.127Z,101370.13
2023-06-17T23:27:00.760Z,101369.78
2023-06-17T23:29:27.194Z,101370.59
2023-06-17T23:31:53.690Z,101375.75
2023-06-17T23:34:20.422Z,101364.47
2023-06-17T23:36:46.942Z,101333.81
2023-06-17T23:39:13.655Z,101369.28
2023-06-17T23:41:40.140Z,101366.06
2023-06-17T23:44:07.052Z,101366.38
2023-06-17T23:46:33.616Z,101369.19
2023-06-17T23:49:00.497Z,101372.63
2023-06-17T23:51:27.020Z,101368.25
2023-06-17T23:53:53.529Z,101364.31
2023-06-17T23:56:20.104Z,101355.09
2023-06-17T23:58:46.635Z,101373.88
